sensor_id;sensor_type;location;lat;lon;timestamp;P1;durP1;ratioP1;P2;durP2;ratioP2
26486;SDS011;14425;56.136;40.360;2023-07-31T00:02:14;3.47;;;2.00;;
26486;SDS011;14425;56.136;40.360;2023-07-31T00:04:40;2.40;;;2.20;;
26486;SDS011;14425;56.136;40.360;2023-07-31T00:07:05;3.05;;;2.10;;
26486;SDS011;14425;56.136;40.360;2023-07-31T00:09:32;3.88;;;2.30;;
26486;SDS011;14425;56.136;40.360;2023-07-31T00:11:57;2.72;;;2.42;;
26486;SDS011;14425;56.136;40.360;2023-07-31T00:14:23;4.13;;;2.30;;
26486;SDS011;14425;56.136;40.360;2023-07-31T00:16:50;3.58;;;2.20;;
26486;SDS011;14425;56.136;40.360;2023-07-31T00:19:15;3.80;;;2.13;;
26486;SDS011;14425;56.136;40.360;2023-07-31T00:21:41;3.03;;;2.15;;
26486;SDS011;14425;56.136;40.360;2023-07-31T00:24:06;3.08;;;2.22;;
26486;SDS011;14425;56.136;40.360;2023-07-31T00:26:31;2.42;;;1.90;;
26486;SDS011;14425;56.136;40.360;2023-07-31T00:28:57;3.10;;;1.80;;
26486;SDS011;14425;56.136;40.360;2023-07-31T00:31:22;2.63;;;1.80;;
26486;SDS011;14425;56.136;40.360;2023-07-31T00:33:48;4.65;;;2.42;;
26486;SDS011;14425;56.136;40.360;2023-07-31T00:36:13;5.25;;;2.65;;
26486;SDS011;14425;56.136;40.360;2023-07-31T00:38:39;2.80;;;2.22;;
26486;SDS011;14425;56.136;40.360;2023-07-31T00:41:04;3.75;;;2.20;;
26486;SDS011;14425;56.136;40.360;2023-07-31T00:43:29;3.20;;;2.08;;
26486;SDS011;14425;56.136;40.360;2023-07-31T00:45:55;2.45;;;1.75;;
26486;SDS011;14425;56.136;40.360;2023-07-31T00:48:20;4.47;;;2.10;;
26486;SDS011;14425;56.136;40.360;2023-07-31T00:50:46;3.53;;;2.25;;
26486;SDS011;14425;56.136;40.360;2023-07-31T00:53:12;2.78;;;2.30;;
26486;SDS011;14425;56.136;40.360;2023-07-31T00:55:38;4.40;;;2.10;;
26486;SDS011;14425;56.136;40.360;2023-07-31T00:58:04;3.58;;;2.40;;
26486;SDS011;14425;56.136;40.360;2023-07-31T01:00:29;4.40;;;2.35;;
26486;SDS011;14425;56.136;40.360;2023-07-31T01:02:54;2.40;;;2.20;;
26486;SDS011;14425;56.136;40.360;2023-07-31T01:05:22;4.40;;;2.13;;
26486;SDS011;14425;56.136;40.360;2023-07-31T01:07:56;7.30;;;2.53;;
26486;SDS011;14425;56.136;40.360;2023-07-31T01:10:26;3.85;;;2.33;;
26486;SDS011;14425;56.136;40.360;2023-07-31T01:12:53;5.25;;;2.28;;
26486;SDS011;14425;56.136;40.360;2023-07-31T01:15:18;2.22;;;1.77;;
26486;SDS011;14425;56.136;40.360;2023-07-31T01:17:44;3.45;;;1.95;;
26486;SDS011;14425;56.136;40.360;2023-07-31T01:20:11;2.00;;;1.70;;
26486;SDS011;14425;56.136;40.360;2023-07-31T01:28:07;5.53;;;2.20;;
26486;SDS011;14425;56.136;40.360;2023-07-31T01:30:33;3.53;;;2.10;;
26486;SDS011;14425;56.136;40.360;2023-07-31T01:33:00;3.92;;;1.90;;
26486;SDS011;14425;56.136;40.360;2023-07-31T01:35:29;2.65;;;2.03;;
26486;SDS011;14425;56.136;40.360;2023-07-31T01:37:54;3.55;;;1.42;;
26486;SDS011;14425;56.136;40.360;2023-07-31T01:40:20;2.80;;;1.65;;
26486;SDS011;14425;56.136;40.360;2023-07-31T01:42:45;3.15;;;2.10;;
26486;SDS011;14425;56.136;40.360;2023-07-31T01:45:11;3.70;;;2.13;;
26486;SDS011;14425;56.136;40.360;2023-07-31T01:47:36;3.00;;;1.90;;
26486;SDS011;14425;56.136;40.360;2023-07-31T01:50:02;2.70;;;2.13;;
26486;SDS011;14425;56.136;40.360;2023-07-31T01:52:29;5.57;;;2.30;;
26486;SDS011;14425;56.136;40.360;2023-07-31T01:54:55;3.30;;;2.17;;
26486;SDS011;14425;56.136;40.360;2023-07-31T01:57:20;2.50;;;1.65;;
26486;SDS011;14425;56.136;40.360;2023-07-31T01:59:46;4.40;;;2.17;;
26486;SDS011;14425;56.136;40.360;2023-07-31T02:02:12;2.38;;;1.67;;
26486;SDS011;14425;56.136;40.360;2023-07-31T02:04:38;4.55;;;2.03;;
26486;SDS011;14425;56.136;40.360;2023-07-31T02:07:04;2.47;;;1.45;;
26486;SDS011;14425;56.136;40.360;2023-07-31T02:09:30;2.97;;;2.05;;
26486;SDS011;14425;56.136;40.360;2023-07-31T02:11:55;6.70;;;1.60;;
26486;SDS011;14425;56.136;40.360;2023-07-31T02:14:21;3.58;;;1.90;;
26486;SDS011;14425;56.136;40.360;2023-07-31T02:16:46;2.33;;;1.33;;
26486;SDS011;14425;56.136;40.360;2023-07-31T02:19:12;2.95;;;1.70;;
26486;SDS011;14425;56.136;40.360;2023-07-31T02:21:37;4.05;;;2.05;;
26486;SDS011;14425;56.136;40.360;2023-07-31T02:24:02;2.50;;;1.60;;
26486;SDS011;14425;56.136;40.360;2023-07-31T02:26:28;4.18;;;1.65;;
26486;SDS011;14425;56.136;40.360;2023-07-31T02:28:53;3.80;;;1.58;;
26486;SDS011;14425;56.136;40.360;2023-07-31T02:31:19;4.45;;;2.00;;
26486;SDS011;14425;56.136;40.360;2023-07-31T02:33:44;4.30;;;2.08;;
26486;SDS011;14425;56.136;40.360;2023-07-31T02:36:10;7.53;;;2.33;;
26486;SDS011;14425;56.136;40.360;2023-07-31T02:38:35;4.00;;;1.80;;
26486;SDS011;14425;56.136;40.360;2023-07-31T02:41:00;2.25;;;1.75;;
26486;SDS011;14425;56.136;40.360;2023-07-31T02:43:26;3.28;;;1.60;;
26486;SDS011;14425;56.136;40.360;2023-07-31T02:45:52;3.75;;;1.40;;
26486;SDS011;14425;56.136;40.360;2023-07-31T02:48:17;3.88;;;1.75;;
26486;SDS011;14425;56.136;40.360;2023-07-31T02:50:43;3.42;;;1.52;;
26486;SDS011;14425;56.136;40.360;2023-07-31T02:53:08;1.83;;;1.60;;
26486;SDS011;14425;56.136;40.360;2023-07-31T02:55:34;4.63;;;1.73;;
26486;SDS011;14425;56.136;40.360;2023-07-31T02:57:59;4.70;;;1.80;;
26486;SDS011;14425;56.136;40.360;2023-07-31T03:00:24;4.38;;;1.90;;
26486;SDS011;14425;56.136;40.360;2023-07-31T03:02:50;4.22;;;2.40;;
26486;SDS011;14425;56.136;40.360;2023-07-31T03:05:15;4.50;;;2.25;;
26486;SDS011;14425;56.136;40.360;2023-07-31T03:07:41;2.78;;;1.83;;
26486;SDS011;14425;56.136;40.360;2023-07-31T03:10:06;3.58;;;1.58;;
26486;SDS011;14425;56.136;40.360;2023-07-31T03:12:32;3.95;;;2.22;;
26486;SDS011;14425;56.136;40.360;2023-07-31T03:14:57;4.85;;;2.25;;
26486;SDS011;14425;56.136;40.360;2023-07-31T03:17:22;3.28;;;1.92;;
26486;SDS011;14425;56.136;40.360;2023-07-31T03:19:48;4.00;;;1.70;;
26486;SDS011;14425;56.136;40.360;2023-07-31T03:22:13;1.67;;;1.15;;
26486;SDS011;14425;56.136;40.360;2023-07-31T03:24:39;3.58;;;1.70;;
26486;SDS011;14425;56.136;40.360;2023-07-31T03:27:04;2.78;;;1.30;;
26486;SDS011;14425;56.136;40.360;2023-07-31T03:29:30;2.40;;;1.50;;
26486;SDS011;14425;56.136;40.360;2023-07-31T03:31:55;2.47;;;1.33;;
26486;SDS011;14425;56.136;40.360;2023-07-31T03:34:21;3.60;;;1.52;;
26486;SDS011;14425;56.136;40.360;2023-07-31T03:36:46;1.70;;;1.52;;
26486;SDS011;14425;56.136;40.360;2023-07-31T03:39:11;3.55;;;1.55;;
26486;SDS011;14425;56.136;40.360;2023-07-31T03:41:37;2.88;;;1.58;;
26486;SDS011;14425;56.136;40.360;2023-07-31T03:44:02;2.05;;;1.20;;
26486;SDS011;14425;56.136;40.360;2023-07-31T03:46:28;2.15;;;1.63;;
26486;SDS011;14425;56.136;40.360;2023-07-31T03:48:53;3.05;;;1.50;;
26486;SDS011;14425;56.136;40.360;2023-07-31T03:51:19;3.20;;;2.00;;
26486;SDS011;14425;56.136;40.360;2023-07-31T03:53:44;1.98;;;1.33;;
26486;SDS011;14425;56.136;40.360;2023-07-31T03:56:10;1.30;;;1.20;;
26486;SDS011;14425;56.136;40.360;2023-07-31T03:58:35;1.80;;;1.33;;
26486;SDS011;14425;56.136;40.360;2023-07-31T04:01:02;3.08;;;1.50;;
26486;SDS011;14425;56.136;40.360;2023-07-31T04:03:27;1.60;;;1.50;;
26486;SDS011;14425;56.136;40.360;2023-07-31T04:05:54;1.83;;;1.30;;
26486;SDS011;14425;56.136;40.360;2023-07-31T04:08:19;2.75;;;1.75;;
26486;SDS011;14425;56.136;40.360;2023-07-31T04:10:45;1.85;;;1.67;;
26486;SDS011;14425;56.136;40.360;2023-07-31T04:13:10;2.92;;;1.90;;
26486;SDS011;14425;56.136;40.360;2023-07-31T04:15:35;3.35;;;1.90;;
26486;SDS011;14425;56.136;40.360;2023-07-31T04:18:01;2.50;;;1.65;;
26486;SDS011;14425;56.136;40.360;2023-07-31T04:20:26;3.30;;;1.73;;
26486;SDS011;14425;56.136;40.360;2023-07-31T04:22:52;2.45;;;1.40;;
26486;SDS011;14425;56.136;40.360;2023-07-31T04:25:17;1.98;;;1.58;;
26486;SDS011;14425;56.136;40.360;2023-07-31T04:27:43;4.32;;;1.83;;
26486;SDS011;14425;56.136;40.360;2023-07-31T04:30:08;3.13;;;1.80;;
26486;SDS011;14425;56.136;40.360;2023-07-31T04:32:34;3.00;;;1.75;;
26486;SDS011;14425;56.136;40.360;2023-07-31T04:35:00;2.60;;;1.60;;
26486;SDS011;14425;56.136;40.360;2023-07-31T04:37:26;5.15;;;1.73;;
26486;SDS011;14425;56.136;40.360;2023-07-31T04:39:51;4.65;;;1.60;;
26486;SDS011;14425;56.136;40.360;2023-07-31T04:42:17;2.72;;;1.60;;
26486;SDS011;14425;56.136;40.360;2023-07-31T04:44:42;3.30;;;1.67;;
26486;SDS011;14425;56.136;40.360;2023-07-31T04:47:07;5.90;;;2.22;;
26486;SDS011;14425;56.136;40.360;2023-07-31T04:49:33;1.95;;;1.50;;
26486;SDS011;14425;56.136;40.360;2023-07-31T04:51:58;3.58;;;1.58;;
26486;SDS011;14425;56.136;40.360;2023-07-31T04:54:24;2.35;;;1.40;;
26486;SDS011;14425;56.136;40.360;2023-07-31T04:56:49;1.92;;;1.70;;
26486;SDS011;14425;56.136;40.360;2023-07-31T04:59:15;2.03;;;1.23;;
26486;SDS011;14425;56.136;40.360;2023-07-31T05:01:40;2.60;;;1.40;;
26486;SDS011;14425;56.136;40.360;2023-07-31T05:04:05;2.88;;;1.50;;
26486;SDS011;14425;56.136;40.360;2023-07-31T05:06:31;3.30;;;1.60;;
26486;SDS011;14425;56.136;40.360;2023-07-31T05:08:57;3.85;;;1.90;;
26486;SDS011;14425;56.136;40.360;2023-07-31T05:11:22;4.88;;;1.77;;
26486;SDS011;14425;56.136;40.360;2023-07-31T05:13:48;2.28;;;1.80;;
26486;SDS011;14425;56.136;40.360;2023-07-31T05:16:13;2.22;;;1.60;;
26486;SDS011;14425;56.136;40.360;2023-07-31T05:18:38;2.20;;;1.63;;
26486;SDS011;14425;56.136;40.360;2023-07-31T05:21:04;4.35;;;1.50;;
26486;SDS011;14425;56.136;40.360;2023-07-31T05:23:29;4.93;;;1.55;;
26486;SDS011;14425;56.136;40.360;2023-07-31T05:26:02;2.22;;;1.52;;
26486;SDS011;14425;56.136;40.360;2023-07-31T05:28:27;6.85;;;3.58;;
26486;SDS011;14425;56.136;40.360;2023-07-31T05:30:58;3.10;;;1.92;;
26486;SDS011;14425;56.136;40.360;2023-07-31T05:33:23;2.08;;;1.25;;
26486;SDS011;14425;56.136;40.360;2023-07-31T05:35:48;2.33;;;1.25;;
26486;SDS011;14425;56.136;40.360;2023-07-31T05:38:14;2.03;;;1.40;;
26486;SDS011;14425;56.136;40.360;2023-07-31T05:40:39;2.08;;;1.30;;
26486;SDS011;14425;56.136;40.360;2023-07-31T05:43:04;1.52;;;1.42;;
26486;SDS011;14425;56.136;40.360;2023-07-31T05:45:31;3.35;;;1.40;;
26486;SDS011;14425;56.136;40.360;2023-07-31T05:47:57;2.50;;;1.08;;
26486;SDS011;14425;56.136;40.360;2023-07-31T05:50:22;3.30;;;1.00;;
26486;SDS011;14425;56.136;40.360;2023-07-31T05:52:47;4.63;;;1.58;;
26486;SDS011;14425;56.136;40.360;2023-07-31T05:55:13;1.63;;;1.40;;
26486;SDS011;14425;56.136;40.360;2023-07-31T05:57:38;1.20;;;1.10;;
26486;SDS011;14425;56.136;40.360;2023-07-31T06:00:04;4.00;;;1.13;;
26486;SDS011;14425;56.136;40.360;2023-07-31T06:02:30;1.25;;;1.15;;
26486;SDS011;14425;56.136;40.360;2023-07-31T06:04:58;1.33;;;1.13;;
26486;SDS011;14425;56.136;40.360;2023-07-31T06:07:23;1.63;;;1.40;;
26486;SDS011;14425;56.136;40.360;2023-07-31T06:09:49;1.77;;;1.63;;
26486;SDS011;14425;56.136;40.360;2023-07-31T06:12:14;1.70;;;1.25;;
26486;SDS011;14425;56.136;40.360;2023-07-31T06:14:43;1.88;;;1.77;;
26486;SDS011;14425;56.136;40.360;2023-07-31T06:17:08;2.40;;;1.70;;
26486;SDS011;14425;56.136;40.360;2023-07-31T06:19:33;5.38;;;1.70;;
26486;SDS011;14425;56.136;40.360;2023-07-31T06:21:59;1.33;;;1.13;;
26486;SDS011;14425;56.136;40.360;2023-07-31T06:24:24;3.83;;;1.38;;
26486;SDS011;14425;56.136;40.360;2023-07-31T06:26:49;1.60;;;1.50;;
26486;SDS011;14425;56.136;40.360;2023-07-31T06:29:16;2.08;;;1.40;;
26486;SDS011;14425;56.136;40.360;2023-07-31T06:31:41;1.92;;;1.25;;
26486;SDS011;14425;56.136;40.360;2023-07-31T06:34:06;1.58;;;1.48;;
26486;SDS011;14425;56.136;40.360;2023-07-31T06:36:32;3.35;;;1.23;;
26486;SDS011;14425;56.136;40.360;2023-07-31T06:38:57;1.50;;;1.33;;
26486;SDS011;14425;56.136;40.360;2023-07-31T06:41:23;2.83;;;1.20;;
26486;SDS011;14425;56.136;40.360;2023-07-31T06:43:48;6.20;;;1.23;;
26486;SDS011;14425;56.136;40.360;2023-07-31T06:46:13;2.83;;;1.50;;
26486;SDS011;14425;56.136;40.360;2023-07-31T06:48:39;2.63;;;1.30;;
26486;SDS011;14425;56.136;40.360;2023-07-31T06:51:04;1.45;;;1.15;;
26486;SDS011;14425;56.136;40.360;2023-07-31T06:53:30;2.00;;;1.40;;
26486;SDS011;14425;56.136;40.360;2023-07-31T06:55:55;1.45;;;1.35;;
26486;SDS011;14425;56.136;40.360;2023-07-31T06:58:21;1.63;;;1.30;;
26486;SDS011;14425;56.136;40.360;2023-07-31T07:00:46;1.90;;;1.40;;
26486;SDS011;14425;56.136;40.360;2023-07-31T07:03:16;2.25;;;1.90;;
26486;SDS011;14425;56.136;40.360;2023-07-31T07:05:41;1.58;;;1.48;;
26486;SDS011;14425;56.136;40.360;2023-07-31T07:08:07;1.85;;;1.58;;
26486;SDS011;14425;56.136;40.360;2023-07-31T07:10:32;3.03;;;1.55;;
26486;SDS011;14425;56.136;40.360;2023-07-31T07:12:58;1.20;;;1.10;;
26486;SDS011;14425;56.136;40.360;2023-07-31T07:15:23;2.88;;;1.50;;
26486;SDS011;14425;56.136;40.360;2023-07-31T07:17:49;3.13;;;1.30;;
26486;SDS011;14425;56.136;40.360;2023-07-31T07:20:14;1.60;;;1.38;;
26486;SDS011;14425;56.136;40.360;2023-07-31T07:22:40;1.63;;;1.30;;
26486;SDS011;14425;56.136;40.360;2023-07-31T07:25:08;4.47;;;2.33;;
26486;SDS011;14425;56.136;40.360;2023-07-31T07:27:33;4.28;;;1.60;;
26486;SDS011;14425;56.136;40.360;2023-07-31T07:29:59;2.40;;;1.50;;
26486;SDS011;14425;56.136;40.360;2023-07-31T07:32:24;1.83;;;1.20;;
26486;SDS011;14425;56.136;40.360;2023-07-31T07:34:50;1.73;;;1.55;;
26486;SDS011;14425;56.136;40.360;2023-07-31T07:37:16;2.15;;;1.40;;
26486;SDS011;14425;56.136;40.360;2023-07-31T07:39:41;1.50;;;1.40;;
26486;SDS011;14425;56.136;40.360;2023-07-31T07:42:07;2.00;;;1.58;;
26486;SDS011;14425;56.136;40.360;2023-07-31T07:44:32;4.85;;;1.20;;
26486;SDS011;14425;56.136;40.360;2023-07-31T07:46:58;1.67;;;1.50;;
26486;SDS011;14425;56.136;40.360;2023-07-31T07:49:23;1.80;;;1.55;;
26486;SDS011;14425;56.136;40.360;2023-07-31T07:51:49;1.70;;;1.58;;
26486;SDS011;14425;56.136;40.360;2023-07-31T07:54:14;3.25;;;1.30;;
26486;SDS011;14425;56.136;40.360;2023-07-31T07:56:42;3.08;;;1.45;;
26486;SDS011;14425;56.136;40.360;2023-07-31T07:59:08;3.30;;;1.98;;
26486;SDS011;14425;56.136;40.360;2023-07-31T08:01:33;2.05;;;1.63;;
26486;SDS011;14425;56.136;40.360;2023-07-31T08:03:59;1.38;;;1.27;;
26486;SDS011;14425;56.136;40.360;2023-07-31T08:06:24;1.40;;;1.30;;
26486;SDS011;14425;56.136;40.360;2023-07-31T08:08:50;3.40;;;1.40;;
26486;SDS011;14425;56.136;40.360;2023-07-31T08:11:15;3.55;;;1.45;;
26486;SDS011;14425;56.136;40.360;2023-07-31T08:13:41;6.00;;;1.80;;
26486;SDS011;14425;56.136;40.360;2023-07-31T08:16:06;3.00;;;1.60;;
26486;SDS011;14425;56.136;40.360;2023-07-31T08:18:31;2.35;;;1.63;;
26486;SDS011;14425;56.136;40.360;2023-07-31T08:20:58;1.77;;;1.42;;
26486;SDS011;14425;56.136;40.360;2023-07-31T08:23:23;2.95;;;1.23;;
26486;SDS011;14425;56.136;40.360;2023-07-31T08:25:49;1.55;;;1.35;;
26486;SDS011;14425;56.136;40.360;2023-07-31T08:28:15;3.08;;;1.35;;
26486;SDS011;14425;56.136;40.360;2023-07-31T08:30:41;1.45;;;1.35;;
26486;SDS011;14425;56.136;40.360;2023-07-31T08:33:07;2.25;;;1.35;;
26486;SDS011;14425;56.136;40.360;2023-07-31T08:35:32;3.15;;;1.50;;
26486;SDS011;14425;56.136;40.360;2023-07-31T08:38:00;2.05;;;1.85;;
26486;SDS011;14425;56.136;40.360;2023-07-31T08:40:25;1.92;;;1.23;;
26486;SDS011;14425;56.136;40.360;2023-07-31T08:42:53;1.42;;;1.25;;
26486;SDS011;14425;56.136;40.360;2023-07-31T08:45:19;1.88;;;1.30;;
26486;SDS011;14425;56.136;40.360;2023-07-31T08:47:45;1.40;;;1.30;;
26486;SDS011;14425;56.136;40.360;2023-07-31T08:50:14;1.05;;;0.95;;
26486;SDS011;14425;56.136;40.360;2023-07-31T08:52:40;1.20;;;1.10;;
26486;SDS011;14425;56.136;40.360;2023-07-31T08:55:05;2.40;;;1.45;;
26486;SDS011;14425;56.136;40.360;2023-07-31T08:57:31;1.25;;;1.15;;
26486;SDS011;14425;56.136;40.360;2023-07-31T08:59:57;1.55;;;1.00;;
26486;SDS011;14425;56.136;40.360;2023-07-31T09:02:23;3.10;;;1.27;;
26486;SDS011;14425;56.136;40.360;2023-07-31T09:04:50;4.32;;;1.45;;
26486;SDS011;14425;56.136;40.360;2023-07-31T09:07:16;3.58;;;1.10;;
26486;SDS011;14425;56.136;40.360;2023-07-31T09:09:42;1.33;;;1.23;;
26486;SDS011;14425;56.136;40.360;2023-07-31T09:12:07;1.10;;;1.00;;
26486;SDS011;14425;56.136;40.360;2023-07-31T09:14:33;3.60;;;1.30;;
26486;SDS011;14425;56.136;40.360;2023-07-31T09:16:58;4.45;;;1.95;;
26486;SDS011;14425;56.136;40.360;2023-07-31T09:19:35;1.25;;;1.00;;
26486;SDS011;14425;56.136;40.360;2023-07-31T09:22:03;1.67;;;1.08;;
26486;SDS011;14425;56.136;40.360;2023-07-31T09:24:29;1.27;;;1.15;;
26486;SDS011;14425;56.136;40.360;2023-07-31T09:26:55;1.02;;;1.00;;
26486;SDS011;14425;56.136;40.360;2023-07-31T09:29:21;1.98;;;1.10;;
26486;SDS011;14425;56.136;40.360;2023-07-31T09:31:47;1.88;;;1.40;;
26486;SDS011;14425;56.136;40.360;2023-07-31T09:34:12;1.08;;;1.02;;
26486;SDS011;14425;56.136;40.360;2023-07-31T09:36:49;1.67;;;1.40;;
26486;SDS011;14425;56.136;40.360;2023-07-31T09:39:15;1.63;;;1.20;;
26486;SDS011;14425;56.136;40.360;2023-07-31T09:41:45;2.28;;;1.40;;
26486;SDS011;14425;56.136;40.360;2023-07-31T09:44:11;1.40;;;1.30;;
26486;SDS011;14425;56.136;40.360;2023-07-31T09:46:36;1.52;;;1.42;;
26486;SDS011;14425;56.136;40.360;2023-07-31T09:49:13;1.45;;;1.35;;
26486;SDS011;14425;56.136;40.360;2023-07-31T09:51:39;3.15;;;1.50;;
26486;SDS011;14425;56.136;40.360;2023-07-31T09:54:15;3.85;;;1.85;;
26486;SDS011;14425;56.136;40.360;2023-07-31T09:56:44;2.20;;;1.30;;
26486;SDS011;14425;56.136;40.360;2023-07-31T09:59:14;1.75;;;1.27;;
26486;SDS011;14425;56.136;40.360;2023-07-31T10:01:40;1.02;;;1.00;;
26486;SDS011;14425;56.136;40.360;2023-07-31T10:04:05;2.28;;;1.15;;
26486;SDS011;14425;56.136;40.360;2023-07-31T10:06:33;5.03;;;3.55;;
26486;SDS011;14425;56.136;40.360;2023-07-31T10:08:59;2.15;;;1.52;;
26486;SDS011;14425;56.136;40.360;2023-07-31T10:11:25;2.45;;;1.40;;
26486;SDS011;14425;56.136;40.360;2023-07-31T10:13:52;1.40;;;1.30;;
26486;SDS011;14425;56.136;40.360;2023-07-31T10:16:21;4.03;;;1.50;;
26486;SDS011;14425;56.136;40.360;2023-07-31T10:18:47;1.48;;;1.02;;
26486;SDS011;14425;56.136;40.360;2023-07-31T10:21:13;1.38;;;1.05;;
26486;SDS011;14425;56.136;40.360;2023-07-31T10:23:39;2.17;;;1.10;;
26486;SDS011;14425;56.136;40.360;2023-07-31T10:26:05;1.42;;;1.33;;
26486;SDS011;14425;56.136;40.360;2023-07-31T10:28:32;1.63;;;1.52;;
26486;SDS011;14425;56.136;40.360;2023-07-31T10:30:58;2.33;;;1.30;;
26486;SDS011;14425;56.136;40.360;2023-07-31T10:33:23;2.25;;;1.40;;
26486;SDS011;14425;56.136;40.360;2023-07-31T10:35:49;1.63;;;1.30;;
26486;SDS011;14425;56.136;40.360;2023-07-31T10:38:18;1.63;;;1.38;;
26486;SDS011;14425;56.136;40.360;2023-07-31T10:40:44;2.67;;;1.30;;
26486;SDS011;14425;56.136;40.360;2023-07-31T10:43:23;1.45;;;1.30;;
26486;SDS011;14425;56.136;40.360;2023-07-31T10:45:49;1.83;;;1.73;;
26486;SDS011;14425;56.136;40.360;2023-07-31T10:48:15;1.25;;;1.15;;
26486;SDS011;14425;56.136;40.360;2023-07-31T10:50:51;1.42;;;1.33;;
26486;SDS011;14425;56.136;40.360;2023-07-31T10:53:26;1.98;;;1.35;;
26486;SDS011;14425;56.136;40.360;2023-07-31T10:55:52;2.88;;;1.50;;
26486;SDS011;14425;56.136;40.360;2023-07-31T10:58:18;1.20;;;0.95;;
26486;SDS011;14425;56.136;40.360;2023-07-31T11:00:44;1.75;;;1.40;;
26486;SDS011;14425;56.136;40.360;2023-07-31T11:03:11;1.52;;;1.40;;
26486;SDS011;14425;56.136;40.360;2023-07-31T11:05:40;4.20;;;1.20;;
26486;SDS011;14425;56.136;40.360;2023-07-31T11:08:40;1.63;;;1.50;;
26486;SDS011;14425;56.136;40.360;2023-07-31T11:13:30;1.67;;;1.10;;
26486;SDS011;14425;56.136;40.360;2023-07-31T11:16:01;1.65;;;1.27;;
26486;SDS011;14425;56.136;40.360;2023-07-31T11:18:27;1.85;;;1.23;;
26486;SDS011;14425;56.136;40.360;2023-07-31T11:20:52;1.95;;;1.20;;
26486;SDS011;14425;56.136;40.360;2023-07-31T11:23:18;1.50;;;1.20;;
26486;SDS011;14425;56.136;40.360;2023-07-31T11:25:44;1.60;;;1.20;;
26486;SDS011;14425;56.136;40.360;2023-07-31T11:28:14;1.67;;;1.27;;
26486;SDS011;14425;56.136;40.360;2023-07-31T11:30:40;1.73;;;1.40;;
26486;SDS011;14425;56.136;40.360;2023-07-31T11:33:06;2.17;;;1.58;;
26486;SDS011;14425;56.136;40.360;2023-07-31T11:35:32;1.27;;;1.17;;
26486;SDS011;14425;56.136;40.360;2023-07-31T11:37:58;1.60;;;1.50;;
26486;SDS011;14425;56.136;40.360;2023-07-31T11:40:23;1.70;;;1.60;;
26486;SDS011;14425;56.136;40.360;2023-07-31T11:42:54;2.97;;;1.70;;
26486;SDS011;14425;56.136;40.360;2023-07-31T11:45:20;3.97;;;1.77;;
26486;SDS011;14425;56.136;40.360;2023-07-31T11:47:45;3.67;;;2.17;;
26486;SDS011;14425;56.136;40.360;2023-07-31T11:50:11;2.53;;;1.67;;
26486;SDS011;14425;56.136;40.360;2023-07-31T11:52:38;2.08;;;1.60;;
26486;SDS011;14425;56.136;40.360;2023-07-31T11:55:05;1.65;;;1.55;;
26486;SDS011;14425;56.136;40.360;2023-07-31T11:57:32;4.97;;;1.55;;
26486;SDS011;14425;56.136;40.360;2023-07-31T11:59:58;2.58;;;1.17;;
26486;SDS011;14425;56.136;40.360;2023-07-31T12:02:23;2.53;;;1.63;;
26486;SDS011;14425;56.136;40.360;2023-07-31T12:04:49;1.58;;;1.48;;
26486;SDS011;14425;56.136;40.360;2023-07-31T12:07:14;2.70;;;1.60;;
26486;SDS011;14425;56.136;40.360;2023-07-31T12:09:55;1.92;;;1.17;;
26486;SDS011;14425;56.136;40.360;2023-07-31T12:12:24;1.75;;;1.50;;
26486;SDS011;14425;56.136;40.360;2023-07-31T12:14:49;1.50;;;1.40;;
26486;SDS011;14425;56.136;40.360;2023-07-31T12:17:16;3.67;;;1.65;;
26486;SDS011;14425;56.136;40.360;2023-07-31T12:19:42;5.20;;;1.45;;
26486;SDS011;14425;56.136;40.360;2023-07-31T12:22:11;4.13;;;1.80;;
26486;SDS011;14425;56.136;40.360;2023-07-31T12:24:37;1.90;;;1.80;;
26486;SDS011;14425;56.136;40.360;2023-07-31T12:27:08;4.80;;;1.70;;
26486;SDS011;14425;56.136;40.360;2023-07-31T12:31:59;4.57;;;2.10;;
26486;SDS011;14425;56.136;40.360;2023-07-31T12:34:25;3.10;;;1.77;;
26486;SDS011;14425;56.136;40.360;2023-07-31T12:36:52;4.13;;;2.03;;
26486;SDS011;14425;56.136;40.360;2023-07-31T12:39:17;4.07;;;2.85;;
26486;SDS011;14425;56.136;40.360;2023-07-31T12:41:42;4.07;;;3.67;;
26486;SDS011;14425;56.136;40.360;2023-07-31T12:44:08;10.50;;;6.60;;
26486;SDS011;14425;56.136;40.360;2023-07-31T12:46:35;10.63;;;7.00;;
26486;SDS011;14425;56.136;40.360;2023-07-31T12:49:00;6.93;;;5.15;;
26486;SDS011;14425;56.136;40.360;2023-07-31T12:51:26;5.28;;;3.35;;
26486;SDS011;14425;56.136;40.360;2023-07-31T12:53:51;5.72;;;2.55;;
26486;SDS011;14425;56.136;40.360;2023-07-31T12:56:16;6.70;;;2.83;;
26486;SDS011;14425;56.136;40.360;2023-07-31T12:58:43;2.10;;;1.90;;
26486;SDS011;14425;56.136;40.360;2023-07-31T13:01:08;2.70;;;2.38;;
26486;SDS011;14425;56.136;40.360;2023-07-31T13:03:33;2.85;;;2.58;;
26486;SDS011;14425;56.136;40.360;2023-07-31T13:05:59;2.13;;;1.90;;
26486;SDS011;14425;56.136;40.360;2023-07-31T13:08:24;2.65;;;2.00;;
26486;SDS011;14425;56.136;40.360;2023-07-31T13:10:50;2.35;;;1.83;;
26486;SDS011;14425;56.136;40.360;2023-07-31T13:13:15;2.25;;;1.60;;
26486;SDS011;14425;56.136;40.360;2023-07-31T13:15:41;2.42;;;1.60;;
26486;SDS011;14425;56.136;40.360;2023-07-31T13:18:06;5.88;;;3.38;;
26486;SDS011;14425;56.136;40.360;2023-07-31T13:20:31;2.25;;;1.40;;
26486;SDS011;14425;56.136;40.360;2023-07-31T13:22:57;5.20;;;1.88;;
26486;SDS011;14425;56.136;40.360;2023-07-31T13:25:22;2.28;;;1.40;;
26486;SDS011;14425;56.136;40.360;2023-07-31T13:27:48;5.13;;;1.88;;
26486;SDS011;14425;56.136;40.360;2023-07-31T13:30:13;2.95;;;1.90;;
26486;SDS011;14425;56.136;40.360;2023-07-31T13:32:38;2.55;;;1.45;;
26486;SDS011;14425;56.136;40.360;2023-07-31T13:35:05;3.85;;;1.70;;
26486;SDS011;14425;56.136;40.360;2023-07-31T13:37:31;1.70;;;1.60;;
26486;SDS011;14425;56.136;40.360;2023-07-31T13:39:56;3.67;;;1.60;;
26486;SDS011;14425;56.136;40.360;2023-07-31T13:42:21;1.60;;;1.42;;
26486;SDS011;14425;56.136;40.360;2023-07-31T13:44:47;1.70;;;1.40;;
26486;SDS011;14425;56.136;40.360;2023-07-31T13:47:12;2.70;;;1.48;;
26486;SDS011;14425;56.136;40.360;2023-07-31T13:49:38;2.42;;;1.48;;
26486;SDS011;14425;56.136;40.360;2023-07-31T13:52:04;1.50;;;1.40;;
26486;SDS011;14425;56.136;40.360;2023-07-31T13:54:29;4.05;;;1.38;;
26486;SDS011;14425;56.136;40.360;2023-07-31T13:56:55;1.80;;;1.27;;
26486;SDS011;14425;56.136;40.360;2023-07-31T13:59:21;3.00;;;1.30;;
26486;SDS011;14425;56.136;40.360;2023-07-31T14:01:46;2.85;;;1.30;;
26486;SDS011;14425;56.136;40.360;2023-07-31T14:04:12;2.53;;;1.45;;
26486;SDS011;14425;56.136;40.360;2023-07-31T14:06:38;3.90;;;1.20;;
26486;SDS011;14425;56.136;40.360;2023-07-31T14:09:03;1.80;;;1.10;;
26486;SDS011;14425;56.136;40.360;2023-07-31T14:11:30;1.40;;;1.30;;
26486;SDS011;14425;56.136;40.360;2023-07-31T14:13:56;3.50;;;1.40;;
26486;SDS011;14425;56.136;40.360;2023-07-31T14:16:21;1.38;;;1.27;;
26486;SDS011;14425;56.136;40.360;2023-07-31T14:18:47;1.83;;;1.23;;
26486;SDS011;14425;56.136;40.360;2023-07-31T14:21:12;2.38;;;1.30;;
26486;SDS011;14425;56.136;40.360;2023-07-31T14:23:38;1.67;;;1.25;;
26486;SDS011;14425;56.136;40.360;2023-07-31T14:26:03;1.35;;;1.25;;
26486;SDS011;14425;56.136;40.360;2023-07-31T14:28:29;4.13;;;1.30;;
26486;SDS011;14425;56.136;40.360;2023-07-31T14:30:55;7.22;;;1.42;;
26486;SDS011;14425;56.136;40.360;2023-07-31T14:33:20;2.97;;;1.60;;
26486;SDS011;14425;56.136;40.360;2023-07-31T14:35:45;2.53;;;1.35;;
26486;SDS011;14425;56.136;40.360;2023-07-31T14:38:11;2.58;;;1.42;;